Terminal Aerodrome Forecast
Issued by NWS Sioux Falls, SD

Home | Current Version | Previous Version | Text Only | Print | Product List | Glossary On
Versions: 1 2 3 4 5 6 7 8 9 10 11 12 13 14 15 16 17
437
FTUS43 KFSD 222012 AAA
TAFHON
TAF AMD
KHON 222012Z 2220/2318 30008KT P6SM OVC012
     FM230300 30006KT P6SM BKN010
     FM231100 VRB03KT P6SM BKN008
     FM231600 15005KT P6SM BKN010=

USA.gov is the U.S. government's official web portal to all federal, state and local government web resources and services.